createdAt,value
2022-09-10T00:01:30.796Z,6.87
2022-09-10T00:03:57.930Z,2.50
2022-09-10T00:06:27.655Z,1.60
2022-09-10T00:08:58.438Z,4.47
2022-09-10T00:11:26.805Z,2.10
2022-09-10T00:13:53.353Z,4.20
2022-09-10T00:16:19.985Z,2.23
2022-09-10T00:18:47.816Z,1.40
2022-09-10T00:21:17.866Z,4.57
2022-09-10T00:23:47.215Z,1.20
2022-09-10T00:26:19.023Z,3.07
2022-09-10T00:28:46.419Z,1.70
2022-09-10T00:31:13.697Z,8.10
2022-09-10T00:33:41.654Z,3.27
2022-09-10T00:36:29.355Z,3.13
2022-09-10T00:38:59.209Z,1.57
2022-09-10T00:41:26.695Z,1.50
2022-09-10T00:44:02.330Z,1.53
2022-09-10T00:46:42.632Z,1.93
2022-09-10T00:49:14.635Z,1.97
2022-09-10T00:51:42.040Z,1.70
2022-09-10T00:54:08.684Z,2.90
2022-09-10T00:56:35.363Z,2.77
2022-09-10T00:59:03.865Z,3.47
2022-09-10T01:01:33.442Z,3.13
2022-09-10T01:04:01.257Z,2.17
2022-09-10T01:06:28.576Z,3.67
2022-09-10T01:08:55.352Z,4.40
2022-09-10T01:11:38.433Z,3.33
2022-09-10T01:14:24.200Z,2.03
2022-09-10T01:17:06.289Z,2.83
2022-09-10T01:20:12.063Z,4.90
2022-09-10T01:23:03.947Z,2.93
2022-09-10T01:25:43.818Z,6.77
2022-09-10T01:28:19.967Z,3.90
2022-09-10T01:30:53.160Z,3.27
2022-09-10T01:33:34.097Z,6.43
2022-09-10T01:36:06.104Z,2.60
2022-09-10T01:38:35.680Z,3.33
2022-09-10T01:41:04.833Z,3.50
2022-09-10T01:43:38.043Z,3.07
2022-09-10T01:46:25.204Z,4.90
2022-09-10T01:49:31.360Z,2.03
2022-09-10T01:52:21.820Z,3.93
2022-09-10T01:55:07.115Z,4.57
2022-09-10T01:57:55.569Z,5.37
2022-09-10T02:00:28.067Z,2.40
2022-09-10T02:03:04.369Z,3.03
2022-09-10T02:05:36.298Z,2.93
2022-09-10T02:08:11.088Z,4.77
2022-09-10T02:11:03.407Z,2.70
2022-09-10T02:13:34.978Z,2.30
2022-09-10T02:16:38.790Z,2.67
2022-09-10T02:19:06.368Z,5.00
2022-09-10T02:21:33.863Z,3.33
2022-09-10T02:24:08.971Z,3.70
2022-09-10T02:26:39.582Z,3.97
2022-09-10T02:29:08.270Z,6.47
2022-09-10T02:31:35.710Z,2.20
2022-09-10T02:34:05.192Z,3.70
2022-09-10T02:36:32.303Z,2.43
2022-09-10T02:39:00.302Z,2.80
2022-09-10T02:41:28.603Z,3.97
2022-09-10T02:43:55.461Z,5.97
2022-09-10T02:46:22.164Z,3.33
2022-09-10T02:48:48.821Z,2.80
2022-09-10T02:51:15.690Z,3.47
2022-09-10T02:53:43.234Z,8.40
2022-09-10T02:56:10.074Z,7.57
2022-09-10T02:58:37.248Z,3.87
2022-09-10T03:01:10.689Z,4.90
2022-09-10T03:03:39.096Z,8.07
2022-09-10T03:06:06.093Z,4.30
2022-09-10T03:08:32.825Z,5.93
2022-09-10T03:10:59.966Z,5.13
2022-09-10T03:13:28.281Z,11.30
2022-09-10T03:16:04.002Z,5.70
2022-09-10T03:18:33.738Z,9.03
2022-09-10T03:21:15.096Z,5.10
2022-09-10T03:23:43.608Z,3.47
2022-09-10T03:26:11.617Z,2.80
2022-09-10T03:28:38.551Z,2.07
2022-09-10T03:31:08.082Z,8.83
2022-09-10T03:33:40.958Z,6.80
2022-09-10T03:36:09.572Z,3.17
2022-09-10T03:38:36.400Z,3.07
2022-09-10T03:41:03.032Z,9.73
2022-09-10T03:43:31.047Z,3.07
2022-09-10T03:45:58.465Z,5.90
2022-09-10T03:48:25.121Z,8.13
2022-09-10T03:50:52.021Z,9.43
2022-09-10T03:53:19.373Z,2.37
2022-09-10T03:55:47.846Z,4.07
2022-09-10T03:58:17.758Z,2.90
2022-09-10T04:00:46.309Z,2.93
2022-09-10T04:03:14.450Z,3.00
2022-09-10T04:05:45.154Z,3.33
2022-09-10T04:08:14.008Z,3.47
2022-09-10T04:10:42.459Z,4.73
2022-09-10T04:13:09.338Z,4.73
2022-09-10T04:15:38.013Z,4.40
2022-09-10T04:18:06.071Z,7.70
2022-09-10T04:20:33.422Z,3.13
2022-09-10T04:23:07.091Z,5.80
2022-09-10T04:25:36.054Z,6.93
2022-09-10T04:28:03.254Z,5.23
2022-09-10T04:30:30.991Z,4.70
2022-09-10T04:32:57.618Z,3.13
2022-09-10T04:35:24.347Z,6.07
2022-09-10T04:37:50.913Z,6.50
2022-09-10T04:40:17.636Z,5.23
2022-09-10T04:42:44.170Z,4.13
2022-09-10T04:45:11.976Z,6.87
2022-09-10T04:47:38.868Z,8.97
2022-09-10T04:50:07.259Z,7.10
2022-09-10T04:52:34.320Z,6.43
2022-09-10T04:55:00.869Z,7.73
2022-09-10T04:57:27.945Z,2.90
2022-09-10T04:59:54.542Z,3.70
2022-09-10T05:02:21.906Z,5.07
2022-09-10T05:04:48.543Z,6.80
2022-09-10T05:07:15.177Z,2.87
2022-09-10T05:09:42.155Z,7.20
2022-09-10T05:12:08.673Z,7.00
2022-09-10T05:14:35.201Z,3.27
2022-09-10T05:17:03.221Z,3.50
2022-09-10T05:19:30.547Z,6.30
2022-09-10T05:22:02.962Z,6.03
2022-09-10T05:24:34.366Z,6.53
2022-09-10T05:27:03.406Z,6.53
2022-09-10T05:29:30.130Z,4.63
2022-09-10T05:31:57.903Z,12.07
2022-09-10T05:34:25.462Z,5.40
2022-09-10T05:41:43.530Z,4.97
2022-09-10T05:44:10.598Z,5.33
2022-09-10T05:46:37.881Z,6.47
2022-09-10T05:49:12.522Z,5.80
2022-09-10T05:51:39.610Z,5.83
2022-09-10T05:54:08.132Z,4.37
2022-09-10T05:56:35.267Z,8.23
2022-09-10T05:59:03.932Z,5.37
2022-09-10T06:01:32.057Z,6.07
2022-09-10T06:03:59.545Z,6.50
2022-09-10T06:06:28.288Z,5.27
2022-09-10T06:09:04.374Z,5.67
2022-09-10T06:11:43.985Z,6.20
2022-09-10T06:14:11.271Z,6.50
2022-09-10T06:16:37.902Z,5.13
2022-09-10T06:19:06.262Z,8.00
2022-09-10T06:21:34.527Z,10.10
2022-09-10T06:24:02.011Z,4.20
2022-09-10T06:26:32.786Z,7.83
2022-09-10T06:29:05.088Z,7.37
2022-09-10T06:31:34.669Z,6.50
2022-09-10T06:34:02.056Z,4.23
2022-09-10T06:36:30.281Z,3.93
2022-09-10T06:38:57.962Z,6.50
2022-09-10T06:41:25.346Z,3.70
2022-09-10T06:43:58.943Z,7.27
2022-09-10T06:49:25.282Z,8.57
2022-09-10T06:51:52.345Z,5.40
2022-09-10T06:54:19.317Z,8.40
2022-09-10T06:56:49.012Z,4.90
2022-09-10T06:59:16.945Z,6.00
2022-09-10T07:01:47.631Z,9.20
2022-09-10T07:04:15.297Z,10.17
2022-09-10T07:06:42.868Z,7.90
2022-09-10T07:09:14.301Z,5.10
2022-09-10T07:11:58.123Z,5.77
2022-09-10T07:14:25.429Z,7.87
2022-09-10T07:16:53.373Z,5.93
2022-09-10T07:19:22.909Z,8.57
2022-09-10T07:21:50.070Z,6.33
2022-09-10T07:24:17.046Z,6.53
2022-09-10T07:26:57.646Z,6.50
2022-09-10T07:29:24.435Z,7.90
2022-09-10T07:31:52.477Z,8.70
2022-09-10T07:34:23.038Z,7.10
2022-09-10T07:36:50.669Z,9.80
2022-09-10T07:39:22.325Z,8.83
2022-09-10T07:41:52.231Z,5.63
2022-09-10T07:44:21.423Z,7.27
2022-09-10T07:46:48.254Z,8.10
2022-09-10T07:49:16.721Z,8.83
2022-09-10T07:51:47.085Z,6.30
2022-09-10T07:54:17.016Z,6.77
2022-09-10T07:56:49.007Z,7.50
2022-09-10T07:59:16.037Z,9.33
2022-09-10T08:01:57.429Z,6.50
2022-09-10T08:04:24.693Z,6.03
2022-09-10T08:06:52.679Z,9.33
2022-09-10T08:09:21.847Z,13.20
2022-09-10T08:11:53.527Z,8.97
2022-09-10T08:14:22.664Z,8.10
2022-09-10T08:16:52.513Z,6.83
2022-09-10T08:19:19.936Z,7.23
2022-09-10T08:21:47.569Z,8.93
2022-09-10T08:24:19.982Z,9.30
2022-09-10T08:26:49.598Z,6.37
2022-09-10T08:29:16.822Z,4.60
2022-09-10T08:31:44.518Z,4.10
2022-09-10T08:34:26.306Z,8.43
2022-09-10T08:37:01.985Z,4.63
2022-09-10T08:39:32.820Z,5.17
2022-09-10T08:42:09.232Z,6.00
2022-09-10T08:44:58.536Z,4.83
2022-09-10T08:47:50.227Z,3.70
2022-09-10T08:50:22.662Z,3.30
2022-09-10T08:52:57.650Z,4.20
2022-09-10T08:55:32.027Z,3.60
2022-09-10T08:58:20.780Z,6.53
2022-09-10T09:00:54.510Z,4.60
2022-09-10T09:03:40.282Z,3.87
2022-09-10T09:06:16.747Z,4.07
2022-09-10T09:08:48.704Z,6.33
2022-09-10T09:11:47.562Z,3.17
2022-09-10T09:14:25.393Z,4.10
2022-09-10T09:17:24.380Z,7.07
2022-09-10T09:20:05.950Z,4.40
2022-09-10T09:22:40.162Z,3.00
2022-09-10T09:25:32.737Z,3.00
2022-09-10T09:28:03.234Z,6.53
2022-09-10T09:30:42.396Z,3.53
2022-09-10T09:33:16.284Z,6.80
2022-09-10T09:36:04.823Z,5.20
2022-09-10T09:38:43.303Z,3.03
2022-09-10T09:41:24.632Z,3.40
2022-09-10T09:44:02.473Z,6.47
2022-09-10T09:46:30.288Z,3.97
2022-09-10T09:49:01.933Z,4.63
2022-09-10T09:51:35.711Z,2.50
2022-09-10T09:56:59.004Z,2.93
2022-09-10T09:59:27.742Z,9.53
2022-09-10T10:02:21.516Z,7.90
2022-09-10T10:05:23.078Z,3.90
2022-09-10T10:07:50.702Z,4.33
2022-09-10T10:10:26.144Z,2.13
2022-09-10T10:12:54.481Z,3.00
2022-09-10T10:15:36.582Z,2.40
2022-09-10T10:18:21.421Z,3.10
2022-09-10T10:20:49.808Z,2.43
2022-09-10T10:23:36.393Z,3.20
2022-09-10T10:26:20.262Z,3.10
2022-09-10T10:29:00.509Z,4.60
2022-09-10T10:31:34.693Z,2.63
2022-09-10T10:34:16.642Z,3.93
2022-09-10T10:36:58.098Z,4.87
2022-09-10T10:39:40.892Z,4.50
2022-09-10T10:42:39.092Z,4.00
2022-09-10T10:45:26.583Z,5.23
2022-09-10T10:48:28.823Z,6.87
2022-09-10T10:51:17.974Z,4.00
2022-09-10T10:54:21.814Z,4.40
2022-09-10T10:56:59.711Z,5.87
2022-09-10T10:59:45.315Z,8.43
2022-09-10T11:02:32.556Z,8.80
2022-09-10T11:05:05.078Z,7.03
2022-09-10T11:07:40.932Z,5.87
2022-09-10T11:10:34.558Z,11.23
2022-09-10T11:13:16.506Z,5.03
2022-09-10T11:16:14.913Z,5.53
2022-09-10T11:18:51.879Z,6.03
2022-09-10T11:21:39.926Z,5.77
2022-09-10T11:24:17.081Z,3.87
2022-09-10T11:26:50.428Z,5.03
2022-09-10T11:29:22.922Z,4.53
2022-09-10T11:31:57.502Z,2.57
2022-09-10T11:34:47.766Z,2.90
2022-09-10T11:37:20.286Z,3.90
2022-09-10T11:39:50.248Z,1.87
2022-09-10T11:42:33.961Z,2.03
2022-09-10T11:45:00.430Z,2.47
2022-09-10T11:47:35.144Z,3.00
2022-09-10T11:50:10.603Z,5.07
2022-09-10T11:52:38.114Z,7.23
2022-09-10T11:55:08.405Z,2.90
2022-09-10T11:58:11.472Z,2.10
2022-09-10T12:01:04.787Z,2.80
2022-09-10T12:03:58.415Z,1.50
2022-09-10T12:07:02.262Z,3.17
2022-09-10T12:09:35.170Z,3.20
2022-09-10T12:12:13.937Z,1.30
2022-09-10T12:14:41.326Z,1.47
2022-09-10T12:17:18.402Z,2.43
2022-09-10T12:19:52.106Z,1.70
2022-09-10T12:22:35.606Z,3.90
2022-09-10T12:25:02.958Z,2.33
2022-09-10T12:27:50.244Z,3.23
2022-09-10T12:30:27.416Z,2.07
2022-09-10T12:33:00.291Z,5.73
2022-09-10T12:35:30.288Z,2.03
2022-09-10T12:38:34.402Z,2.60
2022-09-10T12:41:02.103Z,2.50
2022-09-10T12:43:40.818Z,6.53
2022-09-10T12:46:07.686Z,4.53
2022-09-10T12:48:39.031Z,1.53
2022-09-10T12:51:26.112Z,3.40
2022-09-10T12:54:04.531Z,1.17
2022-09-10T12:57:08.943Z,1.07
2022-09-10T12:59:55.303Z,1.30
2022-09-10T13:02:32.506Z,2.20
2022-09-10T13:05:06.472Z,3.80
2022-09-10T13:07:38.587Z,1.83
2022-09-10T13:10:21.547Z,1.27
2022-09-10T13:12:55.087Z,2.40
2022-09-10T13:15:24.848Z,1.30
2022-09-10T13:17:51.388Z,5.37
2022-09-10T13:20:20.839Z,1.37
2022-09-10T13:23:19.159Z,2.50
2022-09-10T13:25:47.609Z,1.43
2022-09-10T13:28:29.142Z,2.30
2022-09-10T13:31:13.248Z,0.93
2022-09-10T13:33:54.625Z,1.10
2022-09-10T13:36:54.724Z,3.17
2022-09-10T13:39:51.000Z,1.93
2022-09-10T13:42:56.999Z,1.43
2022-09-10T13:45:48.814Z,1.60
2022-09-10T13:48:25.690Z,1.03
2022-09-10T13:51:24.108Z,2.67
2022-09-10T13:53:53.041Z,1.27
2022-09-10T13:56:25.008Z,1.83
2022-09-10T13:58:56.279Z,1.17
2022-09-10T14:01:50.475Z,1.33
2022-09-10T14:04:41.874Z,2.27
2022-09-10T14:07:21.167Z,3.10
2022-09-10T14:09:56.694Z,1.83
2022-09-10T14:12:27.952Z,1.00
2022-09-10T14:14:59.029Z,1.00
2022-09-10T14:17:34.065Z,2.50
2022-09-10T14:20:05.424Z,1.37
2022-09-10T14:22:32.430Z,1.00
2022-09-10T14:25:04.036Z,2.37
2022-09-10T14:27:32.677Z,0.90
2022-09-10T14:30:21.064Z,3.77
2022-09-10T14:32:47.809Z,1.63
2022-09-10T14:35:36.152Z,2.70
2022-09-10T14:38:07.206Z,1.53
2022-09-10T14:40:37.697Z,2.50
2022-09-10T14:43:31.211Z,1.23
2022-09-10T14:45:58.441Z,1.40
2022-09-10T14:49:07.960Z,4.37
2022-09-10T14:51:34.476Z,2.20
2022-09-10T14:54:01.713Z,3.23
2022-09-10T14:56:33.350Z,4.43
2022-09-10T14:59:03.514Z,3.67
2022-09-10T15:01:31.639Z,1.47
2022-09-10T15:03:59.782Z,2.50
2022-09-10T15:06:26.976Z,2.93
2022-09-10T15:08:56.047Z,3.47
2022-09-10T15:11:25.307Z,1.67
2022-09-10T15:13:52.594Z,3.80
2022-09-10T15:16:19.145Z,2.13
2022-09-10T15:18:45.646Z,5.20
2022-09-10T15:21:14.911Z,2.57
2022-09-10T15:23:42.032Z,3.13
2022-09-10T15:26:12.564Z,1.53
2022-09-10T15:28:39.315Z,3.30
2022-09-10T15:31:06.456Z,3.03
2022-09-10T15:33:33.409Z,2.07
2022-09-10T15:36:00.357Z,7.17
2022-09-10T15:38:27.014Z,1.53
2022-09-10T15:41:05.566Z,2.80
2022-09-10T15:43:37.069Z,2.37
2022-09-10T15:46:03.667Z,2.83
2022-09-10T15:48:33.393Z,1.40
2022-09-10T15:51:08.958Z,4.50
2022-09-10T15:53:35.882Z,3.80
2022-09-10T15:56:04.377Z,1.97
2022-09-10T15:58:31.307Z,1.60
2022-09-10T16:01:11.697Z,2.90
2022-09-10T16:03:44.251Z,1.70
2022-09-10T16:06:10.946Z,2.93
2022-09-10T16:08:37.791Z,2.40
2022-09-10T16:11:09.767Z,1.40
2022-09-10T16:13:39.080Z,1.20
2022-09-10T16:16:09.226Z,4.93
2022-09-10T16:18:36.607Z,2.00
2022-09-10T16:21:15.448Z,2.10
2022-09-10T16:23:43.013Z,2.07
2022-09-10T16:26:15.710Z,6.00
2022-09-10T16:28:48.630Z,1.77
2022-09-10T16:31:20.743Z,5.90
2022-09-10T16:33:48.386Z,5.10
2022-09-10T16:36:17.461Z,4.90
2022-09-10T16:38:44.145Z,2.73
2022-09-10T16:41:13.167Z,3.17
2022-09-10T16:43:41.490Z,2.47
2022-09-10T16:46:11.133Z,1.90
2022-09-10T16:48:40.099Z,3.50
2022-09-10T16:51:13.205Z,1.70
2022-09-10T16:53:41.001Z,9.57
2022-09-10T16:56:09.963Z,7.50
2022-09-10T16:58:37.022Z,2.00
2022-09-10T17:01:06.122Z,6.57
2022-09-10T17:03:33.090Z,2.60
2022-09-10T17:06:00.034Z,3.93
2022-09-10T17:08:29.060Z,2.10
2022-09-10T17:10:56.664Z,4.30
2022-09-10T17:13:23.665Z,3.23
2022-09-10T17:15:50.641Z,5.23
2022-09-10T17:18:17.146Z,4.13
2022-09-10T17:20:44.160Z,3.07
2022-09-10T17:23:13.332Z,3.17
2022-09-10T17:25:39.822Z,2.23
2022-09-10T17:28:06.586Z,7.97
2022-09-10T17:30:33.239Z,7.57
2022-09-10T17:32:59.757Z,1.87
2022-09-10T17:35:26.591Z,1.53
2022-09-10T17:37:53.389Z,1.70
2022-09-10T17:40:20.735Z,3.67
2022-09-10T17:42:49.089Z,3.73
2022-09-10T17:45:16.131Z,2.33
2022-09-10T17:47:42.629Z,9.30
2022-09-10T17:50:09.326Z,2.23
2022-09-10T17:52:35.842Z,2.27
2022-09-10T17:55:02.679Z,2.10
2022-09-10T17:57:30.091Z,1.87
2022-09-10T17:59:56.589Z,2.80
2022-09-10T18:02:23.233Z,2.43
2022-09-10T18:04:50.210Z,5.70
2022-09-10T18:07:16.727Z,3.67
2022-09-10T18:09:43.247Z,4.00
2022-09-10T18:12:09.785Z,4.40
2022-09-10T18:14:38.341Z,5.80
2022-09-10T18:17:04.894Z,3.73
2022-09-10T18:19:33.037Z,6.57
2022-09-10T18:22:01.403Z,5.63
2022-09-10T18:24:28.352Z,4.27
2022-09-10T18:26:55.017Z,3.80
2022-09-10T18:29:29.870Z,3.37
2022-09-10T18:32:00.557Z,4.23
2022-09-10T18:34:29.519Z,3.20
2022-09-10T18:36:58.976Z,3.70
2022-09-10T18:39:27.291Z,3.90
2022-09-10T18:41:54.959Z,3.73
2022-09-10T18:44:27.400Z,3.30
2022-09-10T18:46:54.206Z,5.63
2022-09-10T18:49:23.346Z,4.60
2022-09-10T18:51:51.035Z,5.20
2022-09-10T18:54:18.535Z,3.93
2022-09-10T18:56:46.940Z,4.10
2022-09-10T18:59:16.623Z,9.20
2022-09-10T19:01:44.305Z,4.53
2022-09-10T19:04:13.706Z,4.27
2022-09-10T19:06:43.331Z,4.60
2022-09-10T19:09:12.669Z,6.87
2022-09-10T19:11:41.829Z,5.33
2022-09-10T19:14:16.140Z,4.67
2022-09-10T19:16:43.006Z,4.80
2022-09-10T19:19:18.251Z,18.57
2022-09-10T19:21:46.771Z,13.53
2022-09-10T19:24:15.018Z,8.90
2022-09-10T19:26:42.007Z,7.13
2022-09-10T19:29:11.737Z,5.93
2022-09-10T19:31:39.723Z,6.67
2022-09-10T19:34:08.208Z,7.10
2022-09-10T19:36:35.825Z,5.27
2022-09-10T19:39:08.867Z,5.30
2022-09-10T19:41:38.990Z,6.30
2022-09-10T19:44:07.486Z,5.17
2022-09-10T19:46:36.463Z,4.97
2022-09-10T19:49:05.924Z,6.43
2022-09-10T19:51:35.302Z,6.40
2022-09-10T19:54:02.732Z,4.97
2022-09-10T19:56:32.797Z,4.93
2022-09-10T19:59:02.394Z,5.13
2022-09-10T20:01:31.391Z,4.53
2022-09-10T20:04:00.967Z,5.30
2022-09-10T20:06:29.828Z,5.50
2022-09-10T20:08:57.100Z,4.40
2022-09-10T20:11:27.574Z,6.20
2022-09-10T20:14:03.903Z,5.63
2022-09-10T20:16:31.308Z,7.40
2022-09-10T20:18:57.884Z,6.93
2022-09-10T20:21:27.779Z,6.90
2022-09-10T20:23:58.410Z,6.90
2022-09-10T20:26:33.709Z,7.73
2022-09-10T20:29:03.882Z,8.73
2022-09-10T20:31:32.266Z,9.20
2022-09-10T20:34:00.824Z,8.47
2022-09-10T20:36:28.425Z,7.50
2022-09-10T20:38:56.021Z,7.40
2022-09-10T20:41:23.400Z,8.20
2022-09-10T20:43:51.696Z,7.87
2022-09-10T20:46:20.395Z,6.73
2022-09-10T20:48:49.189Z,7.77
2022-09-10T20:51:20.531Z,8.80
2022-09-10T20:53:48.358Z,7.90
2022-09-10T20:56:17.736Z,8.07
2022-09-10T20:58:45.901Z,8.17
2022-09-10T21:01:18.789Z,6.80
2022-09-10T21:03:47.855Z,8.93
2022-09-10T21:06:19.521Z,7.20
2022-09-10T21:08:47.619Z,6.50
2022-09-10T21:11:16.980Z,7.47
2022-09-10T21:13:46.374Z,7.37
2022-09-10T21:16:15.662Z,7.87
2022-09-10T21:18:48.808Z,6.67
2022-09-10T21:21:21.185Z,7.33
2022-09-10T21:23:53.463Z,7.50
2022-09-10T21:26:23.203Z,8.70
2022-09-10T21:28:56.718Z,8.40
2022-09-10T21:31:24.316Z,8.33
2022-09-10T21:33:51.264Z,7.83
2022-09-10T21:36:19.220Z,8.80
2022-09-10T21:38:56.726Z,8.93
2022-09-10T21:41:27.927Z,9.73
2022-09-10T21:43:54.755Z,9.63
2022-09-10T21:46:21.286Z,10.77
2022-09-10T21:48:48.174Z,11.93
2022-09-10T21:51:16.695Z,12.60
2022-09-10T21:53:44.257Z,10.93
2022-09-10T21:56:16.690Z,10.97
2022-09-10T21:58:45.346Z,11.97
2022-09-10T22:01:14.589Z,10.57
2022-09-10T22:03:41.786Z,13.00
2022-09-10T22:06:10.005Z,10.47
2022-09-10T22:08:38.674Z,10.70
2022-09-10T22:11:14.442Z,10.33
2022-09-10T22:13:42.220Z,12.17
2022-09-10T22:16:10.639Z,10.60
2022-09-10T22:18:37.944Z,11.27
2022-09-10T22:21:05.448Z,13.97
2022-09-10T22:23:34.677Z,13.47
2022-09-10T22:26:11.087Z,11.70
2022-09-10T22:28:38.910Z,11.00
2022-09-10T22:31:20.799Z,11.53
2022-09-10T22:33:53.238Z,12.27
2022-09-10T22:36:30.838Z,12.40
2022-09-10T22:39:00.302Z,13.03
2022-09-10T22:41:28.949Z,13.17
2022-09-10T22:43:55.541Z,13.17
2022-09-10T22:46:24.038Z,16.37
2022-09-10T22:48:50.805Z,17.27
2022-09-10T22:51:20.083Z,15.03
2022-09-10T22:53:47.071Z,15.63
2022-09-10T22:56:15.793Z,16.17
2022-09-10T22:58:42.685Z,16.40
2022-09-10T23:01:12.401Z,19.17
2022-09-10T23:03:39.938Z,19.63
2022-09-10T23:06:19.189Z,18.40
2022-09-10T23:08:49.138Z,20.63
2022-09-10T23:11:20.926Z,21.07
2022-09-10T23:13:50.392Z,23.20
2022-09-10T23:16:20.000Z,32.87
2022-09-10T23:18:50.502Z,24.93
2022-09-10T23:21:22.998Z,39.43
2022-09-10T23:23:52.786Z,42.47
2022-09-10T23:26:19.805Z,77.13
2022-09-10T23:28:46.798Z,137.47
2022-09-10T23:31:23.779Z,98.50
2022-09-10T23:34:07.826Z,129.23
2022-09-10T23:36:37.098Z,106.37
2022-09-10T23:39:09.314Z,159.57
2022-09-10T23:41:36.827Z,142.73
2022-09-10T23:44:03.755Z,139.23
2022-09-10T23:46:30.955Z,151.10
2022-09-10T23:48:57.950Z,180.70
2022-09-10T23:51:24.496Z,143.40
2022-09-10T23:53:51.041Z,121.73
2022-09-10T23:56:19.722Z,242.37
2022-09-10T23:58:47.782Z,251.87
